Accueil
METAR-TAF:

METAR-TAF

Aéroports :

Ontario, Oregon, États-Unis

Ontario Municipal Airport

latitude: 44-01-10N, longitude: 117-00-35W, altitude: 667 m

Observation

Le bulletin a été fait il y a 13 minutes, à 10:53 UTC
Vent 3 kt de est
Température -2°C
Humidité 86%
Pression 1041 hPa
Visibilité: 16.1 km
Ciel couvert à une hauteur de 2100 ft

METAR: KONO 111053Z AUTO 10003KT 10SM OVC021 M02/M04 A3073 RMK AO2 SLP431 T10171044

Heure: 04:06 (11:06 UTC)


TAF: absent

Observations et prévisions météorologiques de plus de 4000 aéroports (messages METAR et TAF).

Les stations disponibles sont représentées par des disques jaunes et rouges sur la carte.

Passer la souris dessus pour voir le nom de la station.

Cliquer dessus pour voir les observations et prévisions météorologiques.

Pour changer de carte: cliquez sur les boutons verts avec une croix noire pour zoomer, sur le bouton vert avec un tiret pour effectuer un zoom arrière, ou sur les flèches vertes pour les cartes adjacentes.


METAR-TAF: